Utica, NY

2:12 PM EDT on October 01, 2016 (GMT -0400)
Southwoods | | Change Station

Elev 932 ft 43.06 °N, 75.25 °W | Updated 7 seconds ago

Overcast
Overcast
60.4 °F
Feels Like 60.4 °F
N
1.3
Wind Variable Wind from South
Gusts 4.9 mph

Today
High -- | Low -- °F
--% Chance of Precip.
Yesterday
High -- | Low -- °F
Precip. -- in
Pressure 30.20 in
Visibility 10.0 miles
Clouds Mostly Cloudy 2700 ft
Overcast 3500 ft
Dew Point 54 °F
Humidity 78%
Rainfall 0.00 in
Snow Depth Not available.
6:58 AM 6:41 PM
New Moon, 1% visible
METAR KRME 011753Z 12010KT 10SM BKN027 OVC035 16/12 A3020 RMK AO2 SLP227 T01610122 10161 20106 58024
Pressure 30.20 in
Visibility 10.0 miles
Clouds Mostly Cloudy 2700 ft
Overcast 3500 ft
Dew Point 54 °F
Humidity 78%
Rainfall 0.00 in
Snow Depth Not available.
6:58 AM 6:41 PM
New Moon, 1% visible
METAR KRME 011753Z 12010KT 10SM BKN027 OVC035 16/12 A3020 RMK AO2 SLP227 T01610122 10161 20106 58024

10-Day Weather Forecast

Almanac

Astronomy

Oct. 01, 2016 Rise Set
Actual Time
Civil Twilight
Nautical Twilight
Astronomical Twilight
Moon
Length of Visible Light
Length of Day
Tomorrow will be .
, % of the Moon is Illuminated

Today's Extremes

State Highs State Lows

Community

WunderPhotos

Upload Photos

1,942,981 photos uploaded!

WunderBlog® & News

Nearby

Air Quality

  Air Quality AQ Index Pollutant
Not available.

Snow Depth

Station Depth Elevation

Earthquake Activity

City Distance Mag. Time & Date
Minimum magnitude displayed is 2.5.

Coastal Water Temperatures

Place Temperature

Stations

Nearby Weather Stations

Station Location Temp. Windchill Dew Point Humidity Wind Precip. Elev Updated Type
                   

Watches & Warnings

There are currently no watches in effect.